Lilypad — WDD9770 — position and weather

sailwx.info

Track history (hours):
 
Tides and Currents Weather Stations Pressure Air Temp Water Temp Dewpoint Dewpoint Depression Visibility Wind Speed Wind Dir Waves Ship Positions

Lilypad

Owner: weippert, don w, Yakima, WA. More information available from US FCC via Universal Licensing System and Coast Guard Vessel Documentation Center.

Last reported at 2017-Jan-14 20:22 UTC. Time now 2017-Jan-17 13:08 UTC.
Position N 47°20' W 122°35'.

Length 18 m; draft 2 m.

Type: Pleasure craft. MMSI: 367316110.

Date/timePositionNaut miles runAvg speedWind from/ knotsBaromVisibWave heightAir tempDewpointWater temp
2017-Jan-14 20:22N 47°20' W 122°35'2 2.8
2017-Jan-14 19:34N 47°22' W 122°33'7 7.2
2017-Jan-14 18:34N 47°29' W 122°30'7 7.1
2017-Jan-14 17:33N 47°36' W 122°28'6 5.7
2017-Jan-14 16:33N 47°41' W 122°24'0 0.0
2017-Jan-12 19:33N 47°41' W 122°25'4 3.5
2017-Jan-12 18:33N 47°44' W 122°25'3 3.2
2017-Jan-12 17:33N 47°41' W 122°26'2 1.7
2017-Jan-12 16:33N 47°43' W 122°25'2 1.7
2017-Jan-12 15:33N 47°41' W 122°24'0 0.0
2017-Jan-10 23:20N 47°41' W 122°24'0 0.0
2017-Jan-10 22:33N 47°41' W 122°24'  
Track history (hours):
 
Tides and Currents Weather Stations Pressure Air Temp Water Temp Dewpoint Dewpoint Depression Visibility Wind Speed Wind Dir Waves Ship Positions

Lilypad

Owner: weippert, don w, Yakima, WA. More information available from US FCC via Universal Licensing System and Coast Guard Vessel Documentation Center.

Last reported at 2017-Jan-14 20:22 UTC. Time now 2017-Jan-17 13:08 UTC.
Position N 47°20' W 122°35'.

Length 18 m; draft 2 m.

Type: Pleasure craft. MMSI: 367316110.

Date/timePositionNaut miles runAvg speedWind from/ knotsBaromVisibWave heightAir tempDewpointWater temp
2017-Jan-14 20:22N 47°20' W 122°35'2 2.8
2017-Jan-14 19:34N 47°22' W 122°33'7 7.2
2017-Jan-14 18:34N 47°29' W 122°30'7 7.1
2017-Jan-14 17:33N 47°36' W 122°28'6 5.7
2017-Jan-14 16:33N 47°41' W 122°24'0 0.0
2017-Jan-12 19:33N 47°41' W 122°25'4 3.5
2017-Jan-12 18:33N 47°44' W 122°25'3 3.2
2017-Jan-12 17:33N 47°41' W 122°26'2 1.7
2017-Jan-12 16:33N 47°43' W 122°25'2 1.7
2017-Jan-12 15:33N 47°41' W 122°24'0 0.0
2017-Jan-10 23:20N 47°41' W 122°24'0 0.0
2017-Jan-10 22:33N 47°41' W 122°24'  

Dump ship's entire track history